createdAt,value
2018-08-20T00:01:29.050Z,7.07
2018-08-20T00:04:00.636Z,6.67
2018-08-20T00:06:33.752Z,7.47
2018-08-20T00:09:02.107Z,6.80
2018-08-20T00:11:30.300Z,6.93
2018-08-20T00:13:58.499Z,6.63
2018-08-20T00:16:27.389Z,6.50
2018-08-20T00:18:55.587Z,6.73
2018-08-20T00:21:23.762Z,7.10
2018-08-20T00:23:52.285Z,7.00
2018-08-20T00:26:20.474Z,6.80
2018-08-20T00:28:48.667Z,6.33
2018-08-20T00:31:16.858Z,9.00
2018-08-20T00:33:45.292Z,6.60
2018-08-20T00:36:14.345Z,6.90
2018-08-20T00:38:42.534Z,7.07
2018-08-20T00:41:10.706Z,6.70
2018-08-20T00:43:38.982Z,7.00
2018-08-20T00:46:07.425Z,6.70
2018-08-20T00:48:35.644Z,6.80
2018-08-20T00:51:03.874Z,6.13
2018-08-20T00:53:32.084Z,6.73
2018-08-20T00:56:00.294Z,6.53
2018-08-20T00:58:28.539Z,6.13
2018-08-20T01:00:56.715Z,7.17
2018-08-20T01:03:24.895Z,9.10
2018-08-20T01:05:53.078Z,7.00
2018-08-20T01:08:21.290Z,6.93
2018-08-20T01:10:49.666Z,6.53
2018-08-20T01:13:18.459Z,6.93
2018-08-20T01:15:46.622Z,7.50
2018-08-20T01:18:14.798Z,6.67
2018-08-20T01:20:43.029Z,6.97
2018-08-20T01:23:11.234Z,7.77
2018-08-20T01:25:39.578Z,6.83
2018-08-20T01:28:07.978Z,6.90
2018-08-20T01:30:36.194Z,8.87
2018-08-20T01:33:09.860Z,7.17
2018-08-20T01:35:38.048Z,7.47
2018-08-20T01:38:06.228Z,8.83
2018-08-20T01:40:34.401Z,7.60
2018-08-20T01:43:02.628Z,7.37
2018-08-20T01:45:30.810Z,9.43
2018-08-20T01:47:58.983Z,6.77
2018-08-20T01:50:27.166Z,7.33
2018-08-20T01:52:55.334Z,7.77
2018-08-20T01:55:23.510Z,7.00
2018-08-20T01:57:51.683Z,6.63
2018-08-20T02:00:20.162Z,8.83
2018-08-20T02:02:53.974Z,7.27
2018-08-20T02:05:22.494Z,9.90
2018-08-20T02:07:50.988Z,6.97
2018-08-20T02:10:19.216Z,6.73
2018-08-20T02:12:47.421Z,7.13
2018-08-20T02:15:15.642Z,6.53
2018-08-20T02:17:43.842Z,6.47
2018-08-20T02:20:12.014Z,7.70
2018-08-20T02:22:40.842Z,9.80
2018-08-20T02:25:09.059Z,7.10
2018-08-20T02:27:37.283Z,7.80
2018-08-20T02:30:05.921Z,7.63
2018-08-20T02:32:34.426Z,7.07
2018-08-20T02:35:02.655Z,9.63
2018-08-20T02:37:35.946Z,7.27
2018-08-20T02:40:06.818Z,7.97
2018-08-20T02:42:35.145Z,7.77
2018-08-20T02:45:04.536Z,8.30
2018-08-20T02:47:32.739Z,8.13
2018-08-20T02:50:00.951Z,8.70
2018-08-20T02:52:29.126Z,7.87
2018-08-20T02:54:57.306Z,9.90
2018-08-20T02:57:26.365Z,7.70
2018-08-20T02:59:54.599Z,9.20
2018-08-20T03:02:22.766Z,8.07
2018-08-20T03:04:50.959Z,8.27
2018-08-20T03:07:19.135Z,8.47
2018-08-20T03:09:47.342Z,10.23
2018-08-20T03:12:15.854Z,8.60
2018-08-20T03:14:44.147Z,9.93
2018-08-20T03:17:12.341Z,8.57
2018-08-20T03:19:40.699Z,9.70
2018-08-20T03:22:08.918Z,8.50
2018-08-20T03:24:37.168Z,9.80
2018-08-20T03:27:05.615Z,8.83
2018-08-20T03:29:33.812Z,8.17
2018-08-20T03:32:02.190Z,10.43
2018-08-20T03:34:30.467Z,9.47
2018-08-20T03:36:58.803Z,10.53
2018-08-20T03:39:26.993Z,8.43
2018-08-20T03:41:55.234Z,8.33
2018-08-20T03:44:23.422Z,10.93
2018-08-20T03:46:51.610Z,8.63
2018-08-20T03:49:20.114Z,8.20
2018-08-20T03:51:48.334Z,8.67
2018-08-20T03:54:17.135Z,8.47
2018-08-20T03:56:45.402Z,9.50
2018-08-20T03:59:29.875Z,8.80
2018-08-20T04:01:58.992Z,11.00
2018-08-20T04:04:27.667Z,8.23
2018-08-20T04:06:55.892Z,8.10
2018-08-20T04:09:24.098Z,10.80
2018-08-20T04:11:52.319Z,9.37
2018-08-20T04:14:20.507Z,10.37
2018-08-20T04:16:48.903Z,8.40
2018-08-20T04:19:17.174Z,10.47
2018-08-20T04:21:45.913Z,9.37
2018-08-20T04:24:14.108Z,9.00
2018-08-20T04:26:42.436Z,9.17
2018-08-20T04:29:10.638Z,9.27
2018-08-20T04:31:38.863Z,8.80
2018-08-20T04:34:07.260Z,8.87
2018-08-20T04:36:35.521Z,8.83
2018-08-20T04:39:04.734Z,10.50
2018-08-20T04:41:32.943Z,9.37
2018-08-20T04:44:01.164Z,8.47
2018-08-20T04:46:29.368Z,11.00
2018-08-20T04:48:57.552Z,8.60
2018-08-20T04:51:25.840Z,10.23
2018-08-20T04:53:54.063Z,8.70
2018-08-20T04:56:22.247Z,8.00
2018-08-20T04:58:50.426Z,9.07
2018-08-20T05:01:18.646Z,11.03
2018-08-20T05:03:46.853Z,8.77
2018-08-20T05:06:15.051Z,8.53
2018-08-20T05:08:43.231Z,9.23
2018-08-20T05:11:11.443Z,9.00
2018-08-20T05:13:39.671Z,9.80
2018-08-20T05:16:07.920Z,9.47
2018-08-20T05:18:36.137Z,8.93
2018-08-20T05:21:04.375Z,9.37
2018-08-20T05:23:32.562Z,9.00
2018-08-20T05:26:00.784Z,8.40
2018-08-20T05:28:28.972Z,7.87
2018-08-20T05:30:57.490Z,9.33
2018-08-20T05:33:25.702Z,8.80
2018-08-20T05:35:54.077Z,10.63
2018-08-20T05:38:22.254Z,8.77
2018-08-20T05:40:50.429Z,8.60
2018-08-20T05:43:18.635Z,9.70
2018-08-20T05:45:46.851Z,8.90
2018-08-20T05:48:15.334Z,8.37
2018-08-20T05:50:43.804Z,12.10
2018-08-20T05:53:12.063Z,9.73
2018-08-20T05:55:40.239Z,9.70
2018-08-20T05:58:09.126Z,9.70
2018-08-20T06:00:37.307Z,8.83
2018-08-20T06:03:05.615Z,11.87
2018-08-20T06:05:33.819Z,9.30
2018-08-20T06:08:02.031Z,9.40
2018-08-20T06:10:30.224Z,11.57
2018-08-20T06:12:58.842Z,8.67
2018-08-20T06:15:27.283Z,8.70
2018-08-20T06:17:55.600Z,9.23
2018-08-20T06:20:23.807Z,8.17
2018-08-20T06:22:52.020Z,8.90
2018-08-20T06:25:20.668Z,7.80
2018-08-20T06:27:48.934Z,8.50
2018-08-20T06:30:18.374Z,8.57
2018-08-20T06:32:46.711Z,8.40
2018-08-20T06:35:14.984Z,7.53
2018-08-20T06:37:43.167Z,7.90
2018-08-20T06:40:13.179Z,7.17
2018-08-20T06:42:41.527Z,7.50
2018-08-20T06:45:11.760Z,6.77
2018-08-20T06:47:40.277Z,6.33
2018-08-20T06:50:08.475Z,7.33
2018-08-20T06:52:36.687Z,6.27
2018-08-20T06:55:05.023Z,7.20
2018-08-20T06:57:33.275Z,6.37
2018-08-20T07:00:02.790Z,6.10
2018-08-20T07:02:30.978Z,5.90
2018-08-20T07:04:59.151Z,6.23
2018-08-20T07:07:27.487Z,5.57
2018-08-20T07:09:56.223Z,5.37
2018-08-20T07:12:24.427Z,6.83
2018-08-20T07:14:52.781Z,5.80
2018-08-20T07:17:20.946Z,5.13
2018-08-20T07:19:49.862Z,4.80
2018-08-20T07:22:18.134Z,4.97
2018-08-20T07:24:46.335Z,6.23
2018-08-20T07:27:14.536Z,5.20
2018-08-20T07:29:44.077Z,6.70
2018-08-20T07:32:13.412Z,4.33
2018-08-20T07:34:42.618Z,5.17
2018-08-20T07:37:11.998Z,4.20
2018-08-20T07:39:41.707Z,4.13
2018-08-20T07:42:10.490Z,3.83
2018-08-20T07:44:39.911Z,4.70
2018-08-20T07:47:08.409Z,5.10
2018-08-20T07:49:36.640Z,3.73
2018-08-20T07:52:05.414Z,4.10
2018-08-20T07:54:35.437Z,4.20
2018-08-20T07:57:04.027Z,4.63
2018-08-20T07:59:32.199Z,3.70
2018-08-20T08:02:00.386Z,3.77
2018-08-20T08:04:29.092Z,4.97
2018-08-20T08:06:57.759Z,3.90
2018-08-20T08:09:26.008Z,4.00
2018-08-20T08:11:54.238Z,4.20
2018-08-20T08:14:22.626Z,5.00
2018-08-20T08:16:50.939Z,3.90
2018-08-20T08:19:19.126Z,4.43
2018-08-20T08:21:47.331Z,3.67
2018-08-20T08:24:15.611Z,3.90
2018-08-20T08:26:43.783Z,3.53
2018-08-20T08:29:12.259Z,3.43
2018-08-20T08:31:40.514Z,3.97
2018-08-20T08:34:08.706Z,3.40
2018-08-20T08:36:36.903Z,3.90
2018-08-20T08:39:08.387Z,3.63
2018-08-20T08:41:36.590Z,4.17
2018-08-20T08:44:04.809Z,3.13
2018-08-20T08:46:33.028Z,4.13
2018-08-20T08:49:01.251Z,4.47
2018-08-20T08:51:29.474Z,3.87
2018-08-20T08:53:57.712Z,3.60
2018-08-20T08:56:25.926Z,3.60
2018-08-20T08:58:54.127Z,3.77
2018-08-20T09:01:22.302Z,3.23
2018-08-20T09:03:51.071Z,3.20
2018-08-20T09:06:19.259Z,3.53
2018-08-20T09:08:47.462Z,2.80
2018-08-20T09:11:15.771Z,3.20
2018-08-20T09:13:44.330Z,3.20
2018-08-20T09:16:12.466Z,3.73
2018-08-20T09:18:40.732Z,3.40
2018-08-20T09:21:09.222Z,3.40
2018-08-20T09:23:37.418Z,3.33
2018-08-20T09:26:05.590Z,2.90
2018-08-20T09:28:33.921Z,2.80
2018-08-20T09:31:02.150Z,3.30
2018-08-20T09:33:30.471Z,2.83
2018-08-20T09:35:59.206Z,2.77
2018-08-20T09:38:27.403Z,2.77
2018-08-20T09:40:55.574Z,2.57
2018-08-20T09:43:23.750Z,3.43
2018-08-20T09:45:51.919Z,3.20
2018-08-20T09:48:20.111Z,3.20
2018-08-20T09:50:48.326Z,2.77
2018-08-20T09:53:16.530Z,2.83
2018-08-20T09:55:44.690Z,2.83
2018-08-20T09:58:13.106Z,3.40
2018-08-20T10:00:41.962Z,3.33
2018-08-20T10:03:10.662Z,3.43
2018-08-20T10:05:39.611Z,3.03
2018-08-20T10:08:07.800Z,3.57
2018-08-20T10:10:36.180Z,2.80
2018-08-20T10:13:04.411Z,3.73
2018-08-20T10:15:32.608Z,3.03
2018-08-20T10:18:00.777Z,3.45
2018-08-20T10:20:28.959Z,3.53
2018-08-20T10:22:57.131Z,3.30
2018-08-20T10:25:25.309Z,2.72
2018-08-20T10:27:53.492Z,3.17
2018-08-20T10:30:21.666Z,2.50
2018-08-20T10:32:49.847Z,2.80
2018-08-20T10:35:18.022Z,3.50
2018-08-20T10:37:46.289Z,2.92
2018-08-20T10:40:14.383Z,3.83
2018-08-20T10:42:42.552Z,3.45
2018-08-20T10:45:15.219Z,2.80
2018-08-20T10:47:44.648Z,3.47
2018-08-20T10:50:14.578Z,2.80
2018-08-20T10:52:43.480Z,3.15
2018-08-20T10:55:11.665Z,3.50
2018-08-20T10:57:39.859Z,2.40
2018-08-20T11:00:08.807Z,3.58
2018-08-20T11:02:37.123Z,2.77
2018-08-20T11:05:06.331Z,3.05
2018-08-20T11:07:34.534Z,3.50
2018-08-20T11:10:03.045Z,3.40
2018-08-20T11:12:31.227Z,3.25
2018-08-20T11:14:59.422Z,3.95
2018-08-20T11:17:27.625Z,3.17
2018-08-20T11:19:55.805Z,3.40
2018-08-20T11:22:23.979Z,3.15
2018-08-20T11:24:52.187Z,2.90
2018-08-20T11:27:20.394Z,3.30
2018-08-20T11:29:48.603Z,3.30
2018-08-20T11:32:16.796Z,3.67
2018-08-20T11:34:44.995Z,3.50
2018-08-20T11:37:13.346Z,3.27
2018-08-20T11:39:41.742Z,3.35
2018-08-20T11:42:10.058Z,3.80
2018-08-20T11:44:38.235Z,3.05
2018-08-20T11:47:06.431Z,3.37
2018-08-20T11:49:34.642Z,2.98
2018-08-20T11:52:02.946Z,3.42
2018-08-20T11:54:31.122Z,4.20
2018-08-20T11:56:59.890Z,3.12
2018-08-20T11:59:28.516Z,3.08
2018-08-20T12:01:56.770Z,4.40
2018-08-20T12:04:25.038Z,3.42
2018-08-20T12:06:53.456Z,3.98
2018-08-20T12:09:21.650Z,3.52
2018-08-20T12:11:49.868Z,3.50
2018-08-20T12:14:18.070Z,3.40
2018-08-20T12:16:46.315Z,3.95
2018-08-20T12:19:14.558Z,3.30
2018-08-20T12:21:42.832Z,4.35
2018-08-20T12:24:11.019Z,4.05
2018-08-20T12:26:39.204Z,3.50
2018-08-20T12:29:07.451Z,3.22
2018-08-20T12:31:35.799Z,3.95
2018-08-20T12:34:03.967Z,3.70
2018-08-20T12:36:32.167Z,3.67
2018-08-20T12:39:00.339Z,3.77
2018-08-20T12:41:28.629Z,3.87
2018-08-20T12:43:56.856Z,3.75
2018-08-20T12:46:25.041Z,3.60
2018-08-20T12:48:53.302Z,4.15
2018-08-20T12:51:22.174Z,4.03
2018-08-20T12:53:50.382Z,3.98
2018-08-20T12:56:18.604Z,3.90
2018-08-20T12:58:49.760Z,3.85
2018-08-20T13:01:18.350Z,3.77
2018-08-20T13:03:47.122Z,3.40
2018-08-20T13:06:15.651Z,3.83
2018-08-20T13:08:44.432Z,3.65
2018-08-20T13:11:13.054Z,3.37
2018-08-20T13:13:41.400Z,4.67
2018-08-20T13:16:09.832Z,3.83
2018-08-20T13:18:37.880Z,3.90
2018-08-20T13:21:06.282Z,3.77
2018-08-20T13:23:34.655Z,3.90
2018-08-20T13:26:02.839Z,3.95
2018-08-20T13:28:31.338Z,3.58
2018-08-20T13:30:59.535Z,3.98
2018-08-20T13:33:27.747Z,3.70
2018-08-20T13:35:55.962Z,3.65
2018-08-20T13:38:24.192Z,3.83
2018-08-20T13:40:52.561Z,3.65
2018-08-20T13:43:20.986Z,4.42
2018-08-20T13:45:49.162Z,3.30
2018-08-20T13:48:18.166Z,3.83
2018-08-20T13:50:46.349Z,4.65
2018-08-20T13:53:14.879Z,4.30
2018-08-20T13:55:43.062Z,3.87
2018-08-20T13:58:11.257Z,4.33
2018-08-20T14:00:39.446Z,4.05
2018-08-20T14:03:07.635Z,4.25
2018-08-20T14:05:35.823Z,3.87
2018-08-20T14:08:04.015Z,4.40
2018-08-20T14:10:32.220Z,3.85
2018-08-20T14:13:00.427Z,3.90
2018-08-20T14:15:28.708Z,3.65
2018-08-20T14:17:56.906Z,3.45
2018-08-20T14:20:25.104Z,3.80
2018-08-20T14:22:53.288Z,3.27
2018-08-20T14:25:21.467Z,4.60
2018-08-20T14:27:49.722Z,3.75
2018-08-20T14:30:17.916Z,3.50
2018-08-20T14:32:46.262Z,4.37
2018-08-20T14:35:14.431Z,3.75
2018-08-20T14:37:42.650Z,3.65
2018-08-20T14:40:15.306Z,4.72
2018-08-20T14:42:43.882Z,3.12
2018-08-20T14:45:13.841Z,4.45
2018-08-20T14:47:43.086Z,4.12
2018-08-20T14:50:13.374Z,4.12
2018-08-20T14:52:41.911Z,3.58
2018-08-20T14:55:10.780Z,3.77
2018-08-20T14:57:39.011Z,4.40
2018-08-20T15:00:09.648Z,4.00
2018-08-20T15:02:37.900Z,3.87
2018-08-20T15:05:06.095Z,3.70
2018-08-20T15:07:35.819Z,3.90
2018-08-20T15:10:04.764Z,4.22
2018-08-20T15:12:33.122Z,4.85
2018-08-20T15:15:01.305Z,3.98
2018-08-20T15:17:29.535Z,3.67
2018-08-20T15:19:57.752Z,3.62
2018-08-20T15:22:25.990Z,4.50
2018-08-20T15:24:54.191Z,3.70
2018-08-20T15:27:22.375Z,4.15
2018-08-20T15:29:50.613Z,3.33
2018-08-20T15:32:19.066Z,3.45
2018-08-20T15:34:47.246Z,4.10
2018-08-20T15:37:15.447Z,3.52
2018-08-20T15:39:43.697Z,3.90
2018-08-20T15:42:11.929Z,4.22
2018-08-20T15:44:40.098Z,4.62
2018-08-20T15:47:08.489Z,4.00
2018-08-20T15:49:36.703Z,3.45
2018-08-20T15:52:05.639Z,4.03
2018-08-20T15:54:34.103Z,4.58
2018-08-20T15:57:02.600Z,4.15
2018-08-20T15:59:30.775Z,4.08
2018-08-20T16:01:59.248Z,4.45
2018-08-20T16:04:27.467Z,4.17
2018-08-20T16:06:56.235Z,3.65
2018-08-20T16:09:24.447Z,4.22
2018-08-20T16:11:53.168Z,4.40
2018-08-20T16:14:21.347Z,4.70
2018-08-20T16:16:49.535Z,3.55
2018-08-20T16:19:17.753Z,3.87
2018-08-20T16:21:45.939Z,3.52
2018-08-20T16:24:14.175Z,4.50
2018-08-20T16:26:42.377Z,3.72
2018-08-20T16:29:10.594Z,4.05
2018-08-20T16:31:38.762Z,3.98
2018-08-20T16:34:06.974Z,4.05
2018-08-20T16:36:35.258Z,3.98
2018-08-20T16:39:05.111Z,4.37
2018-08-20T16:41:33.299Z,3.58
2018-08-20T16:44:01.516Z,4.28
2018-08-20T16:46:29.701Z,4.15
2018-08-20T16:48:57.890Z,4.60
2018-08-20T16:51:26.082Z,3.52
2018-08-20T16:53:54.787Z,3.98
2018-08-20T16:56:22.967Z,3.85
2018-08-20T16:58:51.195Z,4.50
2018-08-20T17:01:19.767Z,4.22
2018-08-20T17:03:47.999Z,3.98
2018-08-20T17:06:16.193Z,4.05
2018-08-20T17:08:44.987Z,3.77
2018-08-20T17:11:13.784Z,4.85
2018-08-20T17:13:42.259Z,4.72
2018-08-20T17:16:12.434Z,3.87
2018-08-20T17:18:40.759Z,3.58
2018-08-20T17:21:09.127Z,3.75
2018-08-20T17:23:37.606Z,3.70
2018-08-20T17:26:06.509Z,3.47
2018-08-20T17:28:34.666Z,4.80
2018-08-20T17:31:05.587Z,3.95
2018-08-20T17:33:34.911Z,2.83
2018-08-20T17:36:03.143Z,3.80
2018-08-20T17:38:31.353Z,3.85
2018-08-20T17:40:59.571Z,3.83
2018-08-20T17:43:27.816Z,3.45
2018-08-20T17:45:56.513Z,3.47
2018-08-20T17:48:30.972Z,3.92
2018-08-20T17:50:59.592Z,3.95
2018-08-20T17:53:39.102Z,3.85
2018-08-20T17:56:07.346Z,3.67
2018-08-20T17:58:35.518Z,4.10
2018-08-20T18:01:04.089Z,4.05
2018-08-20T18:03:32.951Z,3.67
2018-08-20T18:06:03.763Z,3.77
2018-08-20T18:08:32.766Z,4.12
2018-08-20T18:11:01.463Z,4.17
2018-08-20T18:13:42.527Z,4.12
2018-08-20T18:16:12.992Z,4.58
2018-08-20T18:18:42.568Z,4.35
2018-08-20T18:21:10.793Z,4.25
2018-08-20T18:23:39.711Z,4.50
2018-08-20T18:26:08.155Z,4.62
2018-08-20T18:28:41.545Z,5.03
2018-08-20T18:31:13.918Z,4.70
2018-08-20T18:33:42.982Z,5.55
2018-08-20T18:36:14.785Z,5.27
2018-08-20T18:38:48.882Z,5.05
2018-08-20T18:41:17.298Z,4.80
2018-08-20T18:43:45.742Z,5.97
2018-08-20T18:46:13.962Z,5.40
2018-08-20T18:48:42.447Z,5.43
2018-08-20T18:51:14.298Z,5.60
2018-08-20T18:53:42.538Z,6.60
2018-08-20T18:56:16.500Z,6.00
2018-08-20T18:58:44.980Z,6.13
2018-08-20T19:01:13.388Z,5.63
2018-08-20T19:03:46.439Z,5.57
2018-08-20T19:06:15.537Z,5.67
2018-08-20T19:08:43.705Z,5.93
2018-08-20T19:11:12.495Z,6.23
2018-08-20T19:13:41.268Z,6.53
2018-08-20T19:16:42.830Z,5.30
2018-08-20T19:19:11.008Z,6.63
2018-08-20T19:21:40.914Z,6.10
2018-08-20T19:24:09.546Z,6.27
2018-08-20T19:26:37.702Z,6.47
2018-08-20T19:29:23.772Z,6.60
2018-08-20T19:31:52.095Z,6.10
2018-08-20T19:34:20.507Z,6.13
2018-08-20T19:36:48.998Z,5.83
2018-08-20T19:39:17.193Z,6.70
2018-08-20T19:41:45.376Z,5.90
2018-08-20T19:44:13.665Z,7.07
2018-08-20T19:46:41.959Z,7.10
2018-08-20T19:49:14.426Z,6.90
2018-08-20T19:51:43.978Z,6.57
2018-08-20T19:54:14.232Z,6.60
2018-08-20T19:56:42.499Z,6.93
2018-08-20T19:59:11.255Z,6.43
2018-08-20T20:01:39.877Z,6.90
2018-08-20T20:04:13.340Z,7.13
2018-08-20T20:06:41.990Z,8.43
2018-08-20T20:09:10.823Z,7.97
2018-08-20T20:11:42.368Z,7.47
2018-08-20T20:14:10.575Z,7.17
2018-08-20T20:16:44.190Z,7.73
2018-08-20T20:19:12.502Z,6.73
2018-08-20T20:21:40.707Z,7.20
2018-08-20T20:24:09.674Z,7.97
2018-08-20T20:26:37.955Z,7.47
2018-08-20T20:29:07.469Z,7.03
2018-08-20T20:31:35.822Z,7.83
2018-08-20T20:34:04.019Z,6.80
2018-08-20T20:36:32.680Z,7.97
2018-08-20T20:39:01.375Z,6.57
2018-08-20T20:41:30.154Z,5.97
2018-08-20T20:43:58.338Z,6.57
2018-08-20T20:46:26.601Z,6.73
2018-08-20T20:48:55.415Z,7.30
2018-08-20T20:51:23.609Z,6.50
2018-08-20T20:53:51.812Z,6.37
2018-08-20T20:56:20.021Z,6.20
2018-08-20T20:58:48.243Z,6.40
2018-08-20T21:01:16.477Z,6.50
2018-08-20T21:03:44.647Z,5.77
2018-08-20T21:06:13.046Z,5.63
2018-08-20T21:08:47.018Z,5.87
2018-08-20T21:11:16.314Z,5.50
2018-08-20T21:13:44.903Z,5.73
2018-08-20T21:16:15.067Z,5.43
2018-08-20T21:18:54.248Z,5.83
2018-08-20T21:21:22.926Z,7.07
2018-08-20T21:23:52.397Z,5.70
2018-08-20T21:26:20.582Z,5.57
2018-08-20T21:28:50.856Z,6.50
2018-08-20T21:31:20.308Z,5.63
2018-08-20T21:33:52.412Z,6.10
2018-08-20T21:36:21.444Z,5.63
2018-08-20T21:38:49.619Z,6.73
2018-08-20T21:41:23.132Z,5.30
2018-08-20T21:43:52.215Z,6.03
2018-08-20T21:46:20.529Z,5.43
2018-08-20T21:48:48.778Z,5.60
2018-08-20T21:51:26.204Z,6.30
2018-08-20T21:53:54.584Z,5.63
2018-08-20T21:56:22.947Z,6.33
2018-08-20T21:58:51.150Z,6.77
2018-08-20T22:01:19.438Z,5.20
2018-08-20T22:03:47.577Z,6.10
2018-08-20T22:06:15.810Z,5.43
2018-08-20T22:08:44.027Z,5.43
2018-08-20T22:11:12.408Z,4.90
2018-08-20T22:13:40.637Z,5.17
2018-08-20T22:16:12.668Z,6.40
2018-08-20T22:18:43.059Z,7.03
2018-08-20T22:21:13.444Z,5.50
2018-08-20T22:23:42.473Z,5.97
2018-08-20T22:26:12.619Z,6.27
2018-08-20T22:28:41.279Z,5.80
2018-08-20T22:31:09.791Z,7.60
2018-08-20T22:33:38.447Z,6.33
2018-08-20T22:36:07.254Z,5.97
2018-08-20T22:38:41.387Z,6.77
2018-08-20T22:41:09.619Z,5.60
2018-08-20T22:43:37.799Z,5.43
2018-08-20T22:46:05.994Z,5.80
2018-08-20T22:48:34.213Z,5.93
2018-08-20T22:51:12.963Z,7.57
2018-08-20T22:53:45.002Z,6.03
2018-08-20T22:56:22.551Z,6.13
2018-08-20T22:58:51.212Z,6.67
2018-08-20T23:01:19.667Z,6.20
2018-08-20T23:03:48.405Z,5.43
2018-08-20T23:06:16.614Z,5.80
2018-08-20T23:08:44.822Z,7.57
2018-08-20T23:11:13.054Z,5.57
2018-08-20T23:13:41.263Z,5.90
2018-08-20T23:16:09.450Z,6.43
2018-08-20T23:18:37.650Z,5.73
2018-08-20T23:21:06.831Z,7.50
2018-08-20T23:23:36.713Z,6.30
2018-08-20T23:26:07.601Z,5.90
2018-08-20T23:28:37.603Z,5.70
2018-08-20T23:31:06.319Z,6.10
2018-08-20T23:33:37.650Z,6.23
2018-08-20T23:36:06.310Z,5.77
2018-08-20T23:38:34.462Z,6.43
2018-08-20T23:41:02.626Z,5.87
2018-08-20T23:43:31.090Z,6.20
2018-08-20T23:45:59.703Z,6.17
2018-08-20T23:48:27.850Z,7.10
2018-08-20T23:51:04.194Z,6.00
2018-08-20T23:53:32.358Z,5.50
2018-08-20T23:56:00.527Z,6.10
2018-08-20T23:58:28.698Z,6.07
